Test XHTML 1.0 Strict Page for WU-History Testing
Histórico de la Estación METEOCORUÑA
Diario Datos del Mayo 17, 2018 Unidades:  Ambos    Inglés   Metrico
« Prev Dia
Sig Dia »
Diario Semanal Mensual Anual Rango
  Max: Min: Media:
Temp: TemperatureC °F /  -17.8 °C 12.1 °F /  -11.1 °C 13 °F /  -10.6 °C
Rocío: DewpointC °F /  -17.8 °C -73.3 °F /  -58.5 °C 6.8 °F /  -14 °C
Humedad: Humidity % 79 % 86 %
Vel. viento: WindSpeedKMH mph /  0 km/h - 11.2 mph /  18 km/h
Racha: WindSpeedGustKMH mph /  0 km/h - -
Viento:- - South
Presión: PressurehPa in /  0 hPa -3386.0 in /  -114650 hPa -
Lluvia: 0.0 in /  0 mm    
Historical Graphs
 
 
Busqueda de Mayo 17, 2018
Hora Temp Rocío Presión Viento Vel. viento Racha Humedad Ratio lluvia (/hora) Radiación
TemperatureC °F /  -17.8 °C DewpointC °F /  -17.8 °C PressurehPa in /  0 hPa Calm     Humidity % HourlyPrecipMM in /  0 mm SolarRadiationWatts/m^2 W/m2
00:00 13.0 °F /  -10.6 °C 10.2 °F /  -12.1 °C 1018.5 in /  34486.4 hPa North 25.9 mph /  41.7 km/h 25.9 mph /  41.7 km/h 83 % 0.0 in /  0 mm 0.0 W/m2
00:05 13.0 °F /  -10.6 °C 10.0 °F /  -12.2 °C 1018.8 in /  34496.6 hPa NNE 12.9 mph /  20.8 km/h 24.1 mph /  38.8 km/h 82 % 0.0 in /  0 mm 0 W/m2
00:10 12.9 °F /  -10.6 °C 10.1 °F /  -12.2 °C 1018.5 in /  34486.4 hPa NE 18.5 mph /  29.8 km/h 18.5 mph /  29.8 km/h 83 % 0.0 in /  0 mm 0.0 W/m2
00:15 12.9 °F /  -10.6 °C 10.1 °F /  -12.2 °C 1019.2 in /  34510.1 hPa NNE 9.7 mph /  15.6 km/h 20.9 mph /  33.6 km/h 83 % 0.0 in /  0 mm 0 W/m2
00:20 12.8 °F /  -10.7 °C 9.8 °F /  -12.3 °C 1018.5 in /  34486.4 hPa NNE 25.9 mph /  41.7 km/h 25.9 mph /  41.7 km/h 82 % 0.0 in /  0 mm 0.0 W/m2
00:25 12.9 °F /  -10.6 °C 9.9 °F /  -12.3 °C 1018.5 in /  34486.4 hPa NNW 20.9 mph /  33.6 km/h 20.9 mph /  33.6 km/h 82 % 0.0 in /  0 mm 0.0 W/m2
00:30 12.9 °F /  -10.6 °C 9.9 °F /  -12.3 °C 1018.5 in /  34486.4 hPa North 14.5 mph /  23.3 km/h 14.5 mph /  23.3 km/h 82 % 0.0 in /  0 mm 0.0 W/m2
00:35 12.8 °F /  -10.7 °C 10.0 °F /  -12.2 °C 1018.5 in /  34486.4 hPa NW 17.7 mph /  28.5 km/h 17.7 mph /  28.5 km/h 83 % 0.0 in /  0 mm 0.0 W/m2
00:40 12.8 °F /  -10.7 °C 10.0 °F /  -12.2 °C 1018.5 in /  34486.4 hPa NNE 16.1 mph /  25.9 km/h 16.1 mph /  25.9 km/h 83 % 0.0 in /  0 mm 0.0 W/m2
00:45 12.8 °F /  -10.7 °C 10.0 °F /  -12.2 °C 1018.5 in /  34486.4 hPa North 19.3 mph /  31.1 km/h 19.3 mph /  31.1 km/h 83 % 0.0 in /  0 mm 0.0 W/m2
00:50 12.8 °F /  -10.7 °C 10.0 °F /  -12.2 °C 1018.5 in /  34486.4 hPa NNE 16.7 mph /  26.9 km/h 16.7 mph /  26.9 km/h 83 % 0.0 in /  0 mm 0.0 W/m2
00:55 12.8 °F /  -10.7 °C 10.0 °F /  -12.2 °C 1018.8 in /  34496.6 hPa NNE 11.3 mph /  18.2 km/h 22.5 mph /  36.2 km/h 83 % 0.0 in /  0 mm 0 W/m2
01:00 12.8 °F /  -10.7 °C 10.0 °F /  -12.2 °C 1018.8 in /  34496.6 hPa NNE 11.3 mph /  18.2 km/h 16.1 mph /  25.9 km/h 83 % 0.0 in /  0 mm 0 W/m2
01:05 12.8 °F /  -10.7 °C 9.9 °F /  -12.3 °C 1018.5 in /  34486.4 hPa North 14.8 mph /  23.8 km/h 14.8 mph /  23.8 km/h 83 % 0.0 in /  0 mm 0.0 W/m2
01:10 12.8 °F /  -10.7 °C 9.9 °F /  -12.3 °C 1018.5 in /  34486.4 hPa North 16.7 mph /  26.9 km/h 16.7 mph /  26.9 km/h 83 % 0.0 in /  0 mm 0.0 W/m2
01:15 12.8 °F /  -10.7 °C 10.0 °F /  -12.2 °C 1018.8 in /  34496.6 hPa NNE 9.7 mph /  15.6 km/h 14.5 mph /  23.3 km/h 83 % 0.0 in /  0 mm 0 W/m2
01:20 12.8 °F /  -10.7 °C 10.2 °F /  -12.1 °C 1018.5 in /  34486.4 hPa NNE 14.8 mph /  23.8 km/h 14.8 mph /  23.8 km/h 84 % 0.0 in /  0 mm 0.0 W/m2
01:25 12.8 °F /  -10.7 °C 10.2 °F /  -12.1 °C 1018.5 in /  34486.4 hPa NE 13.0 mph /  20.9 km/h 13.0 mph /  20.9 km/h 84 % 0.0 in /  0 mm 0.0 W/m2
01:30 12.8 °F /  -10.7 °C 10.2 °F /  -12.1 °C 1018.2 in /  34476.3 hPa NNE 18.5 mph /  29.8 km/h 18.5 mph /  29.8 km/h 84 % 0.0 in /  0 mm 0.0 W/m2
01:35 12.8 °F /  -10.7 °C 10.2 °F /  -12.1 °C 1018.2 in /  34476.3 hPa NE 16.1 mph /  25.9 km/h 16.1 mph /  25.9 km/h 84 % 0.0 in /  0 mm 0.0 W/m2
01:40 12.8 °F /  -10.7 °C 10.2 °F /  -12.1 °C 1018.2 in /  34476.3 hPa North 11.3 mph /  18.2 km/h 11.3 mph /  18.2 km/h 84 % 0.0 in /  0 mm 0.0 W/m2
01:45 12.7 °F /  -10.7 °C 10.3 °F /  -12.1 °C 1018.2 in /  34476.3 hPa NNE 14.8 mph /  23.8 km/h 14.8 mph /  23.8 km/h 85 % 0.0 in /  0 mm 0.0 W/m2
01:50 12.7 °F /  -10.7 °C 10.2 °F /  -12.1 °C 1018.5 in /  34486.4 hPa North 8.0 mph /  12.9 km/h 14.5 mph /  23.3 km/h 85 % 0.0 in /  0 mm 0 W/m2
01:55 12.7 °F /  -10.7 °C 10.3 °F /  -12.1 °C 1018.2 in /  34476.3 hPa NNE 12.9 mph /  20.8 km/h 12.9 mph /  20.8 km/h 85 % 0.0 in /  0 mm 0.0 W/m2
02:00 12.7 °F /  -10.7 °C 10.2 °F /  -12.1 °C 1018.2 in /  34476.3 hPa NNE 14.8 mph /  23.8 km/h 14.8 mph /  23.8 km/h 85 % 0.0 in /  0 mm 0.0 W/m2
02:05 12.6 °F /  -10.8 °C 10.2 °F /  -12.1 °C 1017.8 in /  34462.7 hPa NNE 14.8 mph /  23.8 km/h 14.8 mph /  23.8 km/h 85 % 0.0 in /  0 mm 0.0 W/m2
02:10 12.7 °F /  -10.7 °C 10.2 °F /  -12.1 °C 1017.8 in /  34462.7 hPa NNW 16.7 mph /  26.9 km/h 16.7 mph /  26.9 km/h 85 % 0.0 in /  0 mm 0.0 W/m2
02:15 12.6 °F /  -10.8 °C 10.2 °F /  -12.1 °C 1017.8 in /  34462.7 hPa NNE 13.0 mph /  20.9 km/h 13.0 mph /  20.9 km/h 85 % 0.0 in /  0 mm 0.0 W/m2
02:20 12.6 °F /  -10.8 °C 10.2 °F /  -12.1 °C 1017.8 in /  34462.7 hPa North 11.3 mph /  18.2 km/h 11.3 mph /  18.2 km/h 85 % 0.0 in /  0 mm 0.0 W/m2
02:25 12.6 °F /  -10.8 °C 10.2 °F /  -12.1 °C 1017.8 in /  34462.7 hPa North 16.7 mph /  26.9 km/h 16.7 mph /  26.9 km/h 85 % 0.0 in /  0 mm 0.0 W/m2
02:30 12.6 °F /  -10.8 °C 10.3 °F /  -12.1 °C 1017.8 in /  34462.7 hPa NNW 17.7 mph /  28.5 km/h 17.7 mph /  28.5 km/h 86 % 0.0 in /  0 mm 0.0 W/m2
02:35 12.6 °F /  -10.8 °C 10.3 °F /  -12.1 °C 1017.8 in /  34462.7 hPa North 11.3 mph /  18.2 km/h 11.3 mph /  18.2 km/h 86 % 0.0 in /  0 mm 0.0 W/m2
02:40 12.6 °F /  -10.8 °C 10.3 °F /  -12.1 °C 1017.8 in /  34462.7 hPa NE 13.0 mph /  20.9 km/h 13.0 mph /  20.9 km/h 86 % 0.0 in /  0 mm 0.0 W/m2
02:45 12.6 °F /  -10.8 °C 10.3 °F /  -12.1 °C 1017.8 in /  34462.7 hPa North 12.9 mph /  20.8 km/h 12.9 mph /  20.8 km/h 86 % 0.0 in /  0 mm 0.0 W/m2
02:50 12.5 °F /  -10.8 °C 10.2 °F /  -12.1 °C 1018.2 in /  34476.3 hPa NNW 4.8 mph /  7.7 km/h 14.5 mph /  23.3 km/h 86 % 0.0 in /  0 mm 0 W/m2
02:55 12.5 °F /  -10.8 °C 10.2 °F /  -12.1 °C 1017.8 in /  34462.7 hPa NW 16.7 mph /  26.9 km/h 16.7 mph /  26.9 km/h 86 % 0.0 in /  0 mm 0.0 W/m2
03:00 12.5 °F /  -10.8 °C 10.2 °F /  -12.1 °C 1017.8 in /  34462.7 hPa North 11.1 mph /  17.9 km/h 11.1 mph /  17.9 km/h 86 % 0.0 in /  0 mm 0.0 W/m2
03:05 12.4 °F /  -10.9 °C 10.2 °F /  -12.1 °C 1017.8 in /  34462.7 hPa NNW 14.5 mph /  23.3 km/h 14.5 mph /  23.3 km/h 86 % 0.0 in /  0 mm 0.0 W/m2
03:10 12.4 °F /  -10.9 °C 10.2 °F /  -12.1 °C 1017.8 in /  34462.7 hPa NNW 17.7 mph /  28.5 km/h 17.7 mph /  28.5 km/h 86 % 0.0 in /  0 mm 0.0 W/m2
03:15 12.4 °F /  -10.9 °C 10.2 °F /  -12.1 °C 1017.8 in /  34462.7 hPa NNW 14.5 mph /  23.3 km/h 14.5 mph /  23.3 km/h 86 % 0.0 in /  0 mm 0.0 W/m2
03:20 12.4 °F /  -10.9 °C 10.3 °F /  -12.1 °C 1018.2 in /  34476.3 hPa North 8.0 mph /  12.9 km/h 17.7 mph /  28.5 km/h 87 % 0.0 in /  0 mm 0 W/m2
03:25 12.4 °F /  -10.9 °C 10.3 °F /  -12.1 °C 1018.2 in /  34476.3 hPa North 8.0 mph /  12.9 km/h 17.7 mph /  28.5 km/h 87 % 0.0 in /  0 mm 0 W/m2
03:30 12.4 °F /  -10.9 °C 10.3 °F /  -12.1 °C 1017.8 in /  34462.7 hPa North 9.7 mph /  15.6 km/h 12.9 mph /  20.8 km/h 87 % 0.0 in /  0 mm 0 W/m2
03:35 12.4 °F /  -10.9 °C 10.3 °F /  -12.1 °C 1017.8 in /  34462.7 hPa North 8.0 mph /  12.9 km/h 16.1 mph /  25.9 km/h 87 % 0.0 in /  0 mm 0 W/m2
03:40 12.4 °F /  -10.9 °C 10.3 °F /  -12.1 °C 1017.8 in /  34462.7 hPa North 6.4 mph /  10.3 km/h 14.5 mph /  23.3 km/h 87 % 0.0 in /  0 mm 0 W/m2
03:45 12.3 °F /  -10.9 °C 10.2 °F /  -12.1 °C 1017.8 in /  34462.7 hPa NNE 6.4 mph /  10.3 km/h 12.9 mph /  20.8 km/h 87 % 0.0 in /  0 mm 0 W/m2
03:50 12.3 °F /  -10.9 °C 10.2 °F /  -12.1 °C 1017.8 in /  34462.7 hPa NNE 6.4 mph /  10.3 km/h 12.9 mph /  20.8 km/h 87 % 0.0 in /  0 mm 0 W/m2
03:55 12.3 °F /  -10.9 °C 10.2 °F /  -12.1 °C 1017.8 in /  34462.7 hPa North 4.8 mph /  7.7 km/h 12.9 mph /  20.8 km/h 87 % 0.0 in /  0 mm 0 W/m2
04:00 12.3 °F /  -10.9 °C 10.2 °F /  -12.1 °C 1017.8 in /  34462.7 hPa North 4.8 mph /  7.7 km/h 14.5 mph /  23.3 km/h 87 % 0.0 in /  0 mm 0 W/m2
04:05 12.3 °F /  -10.9 °C 10.2 °F /  -12.1 °C 1017.8 in /  34462.7 hPa NNE 4.8 mph /  7.7 km/h 12.9 mph /  20.8 km/h 87 % 0.0 in /  0 mm 0 W/m2
04:10 12.2 °F /  -11 °C 10.1 °F /  -12.2 °C 1017.8 in /  34462.7 hPa NE 4.8 mph /  7.7 km/h 9.7 mph /  15.6 km/h 87 % 0.0 in /  0 mm 0 W/m2
04:15 12.2 °F /  -11 °C 10.1 °F /  -12.2 °C 1017.8 in /  34462.7 hPa NE 4.8 mph /  7.7 km/h 12.9 mph /  20.8 km/h 87 % 0.0 in /  0 mm 0 W/m2
04:20 12.2 °F /  -11 °C 10.1 °F /  -12.2 °C 1017.5 in /  34452.6 hPa NNE 4.8 mph /  7.7 km/h 14.5 mph /  23.3 km/h 87 % 0.0 in /  0 mm 0 W/m2
04:25 12.2 °F /  -11 °C 10.1 °F /  -12.2 °C 1017.5 in /  34452.6 hPa NNE 6.4 mph /  10.3 km/h 19.3 mph /  31.1 km/h 87 % 0.0 in /  0 mm 0 W/m2
04:30 12.3 °F /  -10.9 °C 10.2 °F /  -12.1 °C 1017.2 in /  34442.4 hPa North 14.8 mph /  23.8 km/h 14.8 mph /  23.8 km/h 87 % 0.0 in /  0 mm 0.0 W/m2
04:35 12.3 °F /  -10.9 °C 10.2 °F /  -12.1 °C 1017.5 in /  34452.6 hPa North 8.0 mph /  12.9 km/h 19.3 mph /  31.1 km/h 87 % 0.0 in /  0 mm 0 W/m2
04:40 12.3 °F /  -10.9 °C 10.2 °F /  -12.1 °C 1017.5 in /  34452.6 hPa North 9.7 mph /  15.6 km/h 16.1 mph /  25.9 km/h 87 % 0.0 in /  0 mm 0 W/m2
04:45 12.3 °F /  -10.9 °C 10.2 °F /  -12.1 °C 1017.5 in /  34452.6 hPa North 9.7 mph /  15.6 km/h 17.7 mph /  28.5 km/h 87 % 0.0 in /  0 mm 0 W/m2
04:50 12.3 °F /  -10.9 °C 10.2 °F /  -12.1 °C 1017.5 in /  34452.6 hPa NNE 8.0 mph /  12.9 km/h 16.1 mph /  25.9 km/h 87 % 0.0 in /  0 mm 0 W/m2
04:55 12.3 °F /  -10.9 °C 10.2 °F /  -12.1 °C 1017.5 in /  34452.6 hPa North 8.0 mph /  12.9 km/h 14.5 mph /  23.3 km/h 87 % 0.0 in /  0 mm 0 W/m2
05:00 12.3 °F /  -10.9 °C 10.2 °F /  -12.1 °C 1017.5 in /  34452.6 hPa North 6.4 mph /  10.3 km/h 14.5 mph /  23.3 km/h 87 % 0.0 in /  0 mm 0 W/m2
05:05 12.2 °F /  -11 °C 10.1 °F /  -12.2 °C 1017.5 in /  34452.6 hPa North 4.8 mph /  7.7 km/h 9.7 mph /  15.6 km/h 87 % 0.0 in /  0 mm 0 W/m2
05:10 12.2 °F /  -11 °C 10.1 °F /  -12.2 °C 1017.5 in /  34452.6 hPa North 3.2 mph /  5.1 km/h 19.3 mph /  31.1 km/h 87 % 0.0 in /  0 mm 0 W/m2
05:15 12.2 °F /  -11 °C 10.1 °F /  -12.2 °C 1017.5 in /  34452.6 hPa NNW 4.8 mph /  7.7 km/h 16.1 mph /  25.9 km/h 87 % 0.0 in /  0 mm 0 W/m2
05:20 12.2 °F /  -11 °C 10.1 °F /  -12.2 °C 1017.5 in /  34452.6 hPa NNE 4.8 mph /  7.7 km/h 16.1 mph /  25.9 km/h 87 % 0.0 in /  0 mm 0 W/m2
05:25 12.1 °F /  -11.1 °C 10.0 °F /  -12.2 °C 1017.5 in /  34452.6 hPa North 4.8 mph /  7.7 km/h 9.7 mph /  15.6 km/h 87 % 0.0 in /  0 mm 0 W/m2
05:30 12.1 °F /  -11.1 °C 10.0 °F /  -12.2 °C 1017.5 in /  34452.6 hPa NNE 4.8 mph /  7.7 km/h 14.5 mph /  23.3 km/h 87 % 0.0 in /  0 mm 0 W/m2
05:35 12.1 °F /  -11.1 °C 10.2 °F /  -12.1 °C 1017.5 in /  34452.6 hPa NNE 4.8 mph /  7.7 km/h 14.5 mph /  23.3 km/h 88 % 0.0 in /  0 mm 0 W/m2
05:40 12.1 °F /  -11.1 °C 10.2 °F /  -12.1 °C 1017.5 in /  34452.6 hPa NNE 6.4 mph /  10.3 km/h 16.1 mph /  25.9 km/h 88 % 0.0 in /  0 mm 0 W/m2
05:45 12.1 °F /  -11.1 °C 10.0 °F /  -12.2 °C 1017.5 in /  34452.6 hPa North 6.4 mph /  10.3 km/h 14.5 mph /  23.3 km/h 87 % 0.0 in /  0 mm 0 W/m2
05:50 12.2 °F /  -11 °C 10.1 °F /  -12.2 °C 1017.2 in /  34442.4 hPa North 6.4 mph /  10.3 km/h 14.5 mph /  23.3 km/h 87 % 0.0 in /  0 mm 0 W/m2
05:55 12.2 °F /  -11 °C 10.1 °F /  -12.2 °C 1017.2 in /  34442.4 hPa NNE 8.0 mph /  12.9 km/h 12.9 mph /  20.8 km/h 87 % 0.0 in /  0 mm 0 W/m2
06:00 12.2 °F /  -11 °C 10.1 °F /  -12.2 °C 1017.2 in /  34442.4 hPa NNE 8.0 mph /  12.9 km/h 14.5 mph /  23.3 km/h 87 % 0.0 in /  0 mm 0 W/m2
06:05 12.2 °F /  -11 °C 10.1 °F /  -12.2 °C 1017.5 in /  34452.6 hPa NNE 6.4 mph /  10.3 km/h 9.7 mph /  15.6 km/h 87 % 0.0 in /  0 mm 0 W/m2
06:10 12.2 °F /  -11 °C 10.1 °F /  -12.2 °C 1017.5 in /  34452.6 hPa North 6.4 mph /  10.3 km/h 14.5 mph /  23.3 km/h 87 % 0.0 in /  0 mm 0 W/m2
06:15 12.2 °F /  -11 °C 10.1 °F /  -12.2 °C 1017.5 in /  34452.6 hPa NNE 6.4 mph /  10.3 km/h 16.1 mph /  25.9 km/h 87 % 0.0 in /  0 mm 0 W/m2
06:20 12.2 °F /  -11 °C 10.1 °F /  -12.2 °C 1017.2 in /  34442.4 hPa NNE 6.4 mph /  10.3 km/h 14.5 mph /  23.3 km/h 87 % 0.0 in /  0 mm 0 W/m2
06:25 12.2 °F /  -11 °C 10.1 °F /  -12.2 °C 1017.2 in /  34442.4 hPa NNE 8.0 mph /  12.9 km/h 16.1 mph /  25.9 km/h 87 % 0.0 in /  0 mm 0 W/m2
06:30 12.2 °F /  -11 °C 10.1 °F /  -12.2 °C 1017.2 in /  34442.4 hPa North 9.7 mph /  15.6 km/h 16.1 mph /  25.9 km/h 87 % 0.0 in /  0 mm 0 W/m2
06:35 12.2 °F /  -11 °C 10.1 °F /  -12.2 °C 1017.2 in /  34442.4 hPa NNE 9.7 mph /  15.6 km/h 17.7 mph /  28.5 km/h 87 % 0.0 in /  0 mm 0 W/m2
06:40 12.2 °F /  -11 °C 10.1 °F /  -12.2 °C 1017.2 in /  34442.4 hPa NNE 9.7 mph /  15.6 km/h 16.1 mph /  25.9 km/h 87 % 0.0 in /  0 mm 0 W/m2
06:46 12.2 °F /  -11 °C 10.1 °F /  -12.2 °C 1017.2 in /  34442.4 hPa North 9.7 mph /  15.6 km/h 16.1 mph /  25.9 km/h 87 % 0.0 in /  0 mm 0 W/m2
06:51 12.2 °F /  -11 °C 10.1 °F /  -12.2 °C 1017.2 in /  34442.4 hPa North 9.7 mph /  15.6 km/h 17.7 mph /  28.5 km/h 87 % 0.0 in /  0 mm 0 W/m2
06:56 12.2 °F /  -11 °C 10.1 °F /  -12.2 °C 1017.2 in /  34442.4 hPa North 8.0 mph /  12.9 km/h 16.1 mph /  25.9 km/h 87 % 0.0 in /  0 mm 0 W/m2
07:01 12.2 °F /  -11 °C 10.1 °F /  -12.2 °C 1017.2 in /  34442.4 hPa North 8.0 mph /  12.9 km/h 17.7 mph /  28.5 km/h 87 % 0.0 in /  0 mm 0 W/m2
07:03 12.2 °F /  -11 °C 10.1 °F /  -12.2 °C 1016.8 in /  34428.8 hPa NNW 16.7 mph /  26.9 km/h 16.7 mph /  26.9 km/h 87 % 0.0 in /  0 mm 0.0 W/m2
07:06 12.1 °F /  -11.1 °C 10.0 °F /  -12.2 °C 1017.2 in /  34442.4 hPa North 8.0 mph /  12.9 km/h 14.5 mph /  23.3 km/h 87 % 0.0 in /  0 mm 0 W/m2
07:11 12.2 °F /  -11 °C 10.1 °F /  -12.2 °C 1016.8 in /  34428.8 hPa NNW 16.7 mph /  26.9 km/h 16.7 mph /  26.9 km/h 87 % 0.0 in /  0 mm 0.0 W/m2
07:14 12.1 °F /  -11.1 °C 10.0 °F /  -12.2 °C 1016.8 in /  34428.8 hPa North 11.1 mph /  17.9 km/h 11.1 mph /  17.9 km/h 87 % 0.0 in /  0 mm 0.0 W/m2
07:16 12.1 °F /  -11.1 °C 10.0 °F /  -12.2 °C 1017.2 in /  34442.4 hPa North 6.4 mph /  10.3 km/h 11.3 mph /  18.2 km/h 87 % 0.0 in /  0 mm 9 W/m2
07:21 12.1 °F /  -11.1 °C 10.0 °F /  -12.2 °C 1016.8 in /  34428.8 hPa North 11.1 mph /  17.9 km/h 11.1 mph /  17.9 km/h 87 % 0.0 in /  0 mm 0.0 W/m2
07:26 12.1 °F /  -11.1 °C 10.0 °F /  -12.2 °C 1017.5 in /  34452.6 hPa North 4.8 mph /  7.7 km/h 12.9 mph /  20.8 km/h 87 % 0.0 in /  0 mm 14 W/m2
07:31 12.1 °F /  -11.1 °C 10.0 °F /  -12.2 °C 1017.5 in /  34452.6 hPa North 6.4 mph /  10.3 km/h 17.7 mph /  28.5 km/h 87 % 0.0 in /  0 mm 18 W/m2
07:36 12.2 °F /  -11 °C 10.1 °F /  -12.2 °C 1017.5 in /  34452.6 hPa NNE 6.4 mph /  10.3 km/h 16.1 mph /  25.9 km/h 87 % 0.0 in /  0 mm 21 W/m2
07:41 12.2 °F /  -11 °C 10.1 °F /  -12.2 °C 1017.2 in /  34442.4 hPa North 6.4 mph /  10.3 km/h 14.5 mph /  23.3 km/h 87 % 0.0 in /  0 mm 23 W/m2
07:46 12.2 °F /  -11 °C 10.1 °F /  -12.2 °C 1017.5 in /  34452.6 hPa NW 4.8 mph /  7.7 km/h 12.9 mph /  20.8 km/h 87 % 0.0 in /  0 mm 26 W/m2
07:51 12.3 °F /  -10.9 °C 10.2 °F /  -12.1 °C 1017.5 in /  34452.6 hPa NNE 4.8 mph /  7.7 km/h 16.1 mph /  25.9 km/h 87 % 0.0 in /  0 mm 28 W/m2
07:56 12.3 °F /  -10.9 °C 10.2 °F /  -12.1 °C 1017.5 in /  34452.6 hPa North 4.8 mph /  7.7 km/h 11.3 mph /  18.2 km/h 87 % 0.0 in /  0 mm 32 W/m2
08:01 12.3 °F /  -10.9 °C 10.2 °F /  -12.1 °C 1017.5 in /  34452.6 hPa North 4.8 mph /  7.7 km/h 11.3 mph /  18.2 km/h 87 % 0.0 in /  0 mm 33 W/m2
08:06 12.4 °F /  -10.9 °C 10.3 °F /  -12.1 °C 1017.5 in /  34452.6 hPa North 4.8 mph /  7.7 km/h 12.9 mph /  20.8 km/h 87 % 0.0 in /  0 mm 37 W/m2
08:11 12.4 °F /  -10.9 °C 10.1 °F /  -12.2 °C 1017.5 in /  34452.6 hPa North 4.8 mph /  7.7 km/h 12.9 mph /  20.8 km/h 86 % 0.0 in /  0 mm 39 W/m2
08:16 12.4 °F /  -10.9 °C 10.1 °F /  -12.2 °C 1017.5 in /  34452.6 hPa North 4.8 mph /  7.7 km/h 16.1 mph /  25.9 km/h 86 % 0.0 in /  0 mm 42 W/m2
08:21 12.5 °F /  -10.8 °C 10.2 °F /  -12.1 °C 1017.5 in /  34452.6 hPa North 4.8 mph /  7.7 km/h 19.3 mph /  31.1 km/h 86 % 0.0 in /  0 mm 46 W/m2
08:26 12.6 °F /  -10.8 °C 10.3 °F /  -12.1 °C 1017.5 in /  34452.6 hPa North 6.4 mph /  10.3 km/h 17.7 mph /  28.5 km/h 86 % 0.0 in /  0 mm 56 W/m2
08:31 12.7 °F /  -10.7 °C 10.4 °F /  -12 °C 1017.5 in /  34452.6 hPa North 6.4 mph /  10.3 km/h 17.7 mph /  28.5 km/h 86 % 0.0 in /  0 mm 58 W/m2
08:36 12.8 °F /  -10.7 °C 10.5 °F /  -11.9 °C 1017.5 in /  34452.6 hPa North 6.4 mph /  10.3 km/h 9.7 mph /  15.6 km/h 86 % 0.0 in /  0 mm 93 W/m2
08:41 12.8 °F /  -10.7 °C 10.5 °F /  -11.9 °C 1017.2 in /  34442.4 hPa North 3.2 mph /  5.1 km/h 16.1 mph /  25.9 km/h 86 % 0.0 in /  0 mm 127.0 W/m2
08:46 12.8 °F /  -10.7 °C 10.3 °F /  -12.1 °C 1017.5 in /  34452.6 hPa North 6.4 mph /  10.3 km/h 14.5 mph /  23.3 km/h 85 % 0.0 in /  0 mm 83 W/m2
08:51 12.9 °F /  -10.6 °C 10.4 °F /  -12 °C 1017.5 in /  34452.6 hPa North 8.0 mph /  12.9 km/h 17.7 mph /  28.5 km/h 85 % 0.0 in /  0 mm 204 W/m2
08:56 13.0 °F /  -10.6 °C 10.6 °F /  -11.9 °C 1017.5 in /  34452.6 hPa NNE 6.4 mph /  10.3 km/h 19.3 mph /  31.1 km/h 85 % 0.0 in /  0 mm 227 W/m2
09:11 13.3 °F /  -10.4 °C -73.3 °F /  -58.5 °C -3386.0 in /  -114650 hPa NW 12.9 mph /  20.8 km/h 14.5 mph /  23.3 km/h 84 % 0.0 in /  0 mm 283 W/m2
09:16 13.4 °F /  -10.3 °C 10.8 °F /  -11.8 °C 1017.5 in /  34452.6 hPa NE 4.8 mph /  7.7 km/h 12.9 mph /  20.8 km/h 84 % 0.0 in /  0 mm 301 W/m2
09:41 13.9 °F /  -10.1 °C -73.3 °F /  -58.5 °C -3386.0 in /  -114650 hPa NE 4.8 mph /  7.7 km/h 11.3 mph /  18.2 km/h 82 % 0.0 in /  0 mm 371 W/m2
10:01 14.3 °F /  -9.8 °C 10.9 °F /  -11.7 °C 1017.5 in /  34452.6 hPa NNE 6.4 mph /  10.3 km/h 14.5 mph /  23.3 km/h 80 % 0.0 in /  0 mm 431 W/m2
10:16 14.7 °F /  -9.6 °C 11.3 °F /  -11.5 °C 1017.5 in /  34452.6 hPa North 6.4 mph /  10.3 km/h 11.3 mph /  18.2 km/h 80 % 0.0 in /  0 mm 471 W/m2
10:21 14.6 °F /  -9.7 °C 11.2 °F /  -11.6 °C 1017.5 in /  34452.6 hPa NNE 6.4 mph /  10.3 km/h 11.3 mph /  18.2 km/h 80 % 0.0 in /  0 mm 485 W/m2
10:26 14.7 °F /  -9.6 °C 11.1 °F /  -11.6 °C 1017.5 in /  34452.6 hPa North 4.8 mph /  7.7 km/h 12.9 mph /  20.8 km/h 79 % 0.0 in /  0 mm 499 W/m2
10:41 15.2 °F /  -9.3 °C 11.9 °F /  -11.2 °C 1017.5 in /  34452.6 hPa NNE 4.8 mph /  7.7 km/h 8.0 mph /  12.9 km/h 81 % 0.0 in /  0 mm 540 W/m2
10:51 15.2 °F /  -9.3 °C 11.8 °F /  -11.2 °C 1017.5 in /  34452.6 hPa North 4.8 mph /  7.7 km/h 16.1 mph /  25.9 km/h 80 % 0.0 in /  0 mm 564 W/m2
10:56 15.1 °F /  -9.4 °C 11.7 °F /  -11.3 °C 1017.5 in /  34452.6 hPa North 6.4 mph /  10.3 km/h 14.5 mph /  23.3 km/h 80 % 0.0 in /  0 mm 578 W/m2
11:01 15.3 °F /  -9.3 °C 11.9 °F /  -11.2 °C 1017.5 in /  34452.6 hPa NNE 6.4 mph /  10.3 km/h 8.0 mph /  12.9 km/h 80 % 0.0 in /  0 mm 592 W/m2
11:16 15.9 °F /  -8.9 °C 12.3 °F /  -10.9 °C 1017.5 in /  34452.6 hPa NE 3.2 mph /  5.1 km/h 11.3 mph /  18.2 km/h 79 % 0.0 in /  0 mm 631 W/m2
11:36 15.8 °F /  -9 °C 12.3 °F /  -10.9 °C 1017.5 in /  34452.6 hPa NNW 4.8 mph /  7.7 km/h 12.9 mph /  20.8 km/h 80 % 0.0 in /  0 mm 673 W/m2
11:41 15.3 °F /  -9.3 °C 11.9 °F /  -11.2 °C 1017.5 in /  34452.6 hPa NW 6.4 mph /  10.3 km/h 19.3 mph /  31.1 km/h 80 % 0.0 in /  0 mm 682 W/m2
11:46 14.9 °F /  -9.5 °C 11.7 °F /  -11.3 °C 1017.5 in /  34452.6 hPa NNW 9.7 mph /  15.6 km/h 20.9 mph /  33.6 km/h 81 % 0.0 in /  0 mm 694 W/m2
11:51 14.6 °F /  -9.7 °C 11.7 °F /  -11.3 °C 1017.8 in /  34462.7 hPa NNW 9.7 mph /  15.6 km/h 24.1 mph /  38.8 km/h 83 % 0.0 in /  0 mm 705 W/m2
11:52 14.5 °F /  -9.7 °C 11.7 °F /  -11.3 °C 1017.8 in /  34462.7 hPa NNW 11.3 mph /  18.2 km/h 22.5 mph /  36.2 km/h 83 % 0.0 in /  0 mm 705 W/m2
11:57 14.5 °F /  -9.7 °C 11.8 °F /  -11.2 °C 1017.8 in /  34462.7 hPa NNW 11.3 mph /  18.2 km/h 19.3 mph /  31.1 km/h 84 % 0.0 in /  0 mm 705 W/m2
12:47 14.2 °F /  -9.9 °C 11.9 °F /  -11.2 °C 1017.5 in /  34452.6 hPa NNW 16.1 mph /  25.9 km/h 30.6 mph /  49.2 km/h 86 % 0.0 in /  0 mm 789 W/m2
12:52 14.1 °F /  -9.9 °C 11.8 °F /  -11.2 °C 1017.5 in /  34452.6 hPa NNW 17.7 mph /  28.5 km/h 27.4 mph /  44.1 km/h 86 % 0.0 in /  0 mm 807 W/m2
12:57 14.1 °F /  -9.9 °C 11.8 °F /  -11.2 °C 1017.5 in /  34452.6 hPa NW 17.7 mph /  28.5 km/h 27.4 mph /  44.1 km/h 86 % 0.0 in /  0 mm 814 W/m2
13:02 14.1 °F /  -9.9 °C 11.8 °F /  -11.2 °C 1017.5 in /  34452.6 hPa NNW 14.5 mph /  23.3 km/h 29.0 mph /  46.7 km/h 86 % 0.0 in /  0 mm 817 W/m2
13:07 14.2 °F /  -9.9 °C 11.9 °F /  -11.2 °C 1017.5 in /  34452.6 hPa NW 14.5 mph /  23.3 km/h 35.4 mph /  57 km/h 86 % 0.0 in /  0 mm 824 W/m2
13:12 14.1 °F /  -9.9 °C 11.8 °F /  -11.2 °C 1017.5 in /  34452.6 hPa NW 17.7 mph /  28.5 km/h 35.4 mph /  57 km/h 86 % 0.0 in /  0 mm 830 W/m2
13:17 14.2 °F /  -9.9 °C 11.9 °F /  -11.2 °C 1017.5 in /  34452.6 hPa NW 17.7 mph /  28.5 km/h 25.7 mph /  41.4 km/h 86 % 0.0 in /  0 mm 835 W/m2
13:37 14.3 °F /  -9.8 °C 11.8 °F /  -11.2 °C 1017.5 in /  34452.6 hPa NW 14.5 mph /  23.3 km/h 30.6 mph /  49.2 km/h 85 % 0.0 in /  0 mm 853 W/m2
13:42 14.3 °F /  -9.8 °C 11.8 °F /  -11.2 °C 1017.5 in /  34452.6 hPa NW 14.5 mph /  23.3 km/h 27.4 mph /  44.1 km/h 85 % 0.0 in /  0 mm 854 W/m2
14:12 14.1 °F /  -9.9 °C 11.8 °F /  -11.2 °C 1017.2 in /  34442.4 hPa NW 17.7 mph /  28.5 km/h 35.4 mph /  57 km/h 86 % 0.0 in /  0 mm 874 W/m2
14:27 14.3 °F /  -9.8 °C 11.8 °F /  -11.2 °C 1017.2 in /  34442.4 hPa NNW 14.5 mph /  23.3 km/h 30.6 mph /  49.2 km/h 85 % 0.0 in /  0 mm 761 W/m2
14:42 13.9 °F /  -10.1 °C 11.4 °F /  -11.4 °C 1017.2 in /  34442.4 hPa NW 17.7 mph /  28.5 km/h 33.8 mph /  54.4 km/h 85 % 0.0 in /  0 mm 747 W/m2
15:02 13.9 °F /  -10.1 °C 11.6 °F /  -11.3 °C 1017.2 in /  34442.4 hPa NW 19.3 mph /  31.1 km/h 35.4 mph /  57 km/h 86 % 0.0 in /  0 mm 865 W/m2
15:37 13.9 °F /  -10.1 °C 11.6 °F /  -11.3 °C 1016.8 in /  34428.8 hPa NNW 16.1 mph /  25.9 km/h 41.8 mph /  67.3 km/h 86 % 0.0 in /  0 mm 849 W/m2
15:42 13.8 °F /  -10.1 °C 11.5 °F /  -11.4 °C 1016.8 in /  34428.8 hPa NNW 19.3 mph /  31.1 km/h 40.2 mph /  64.7 km/h 86 % 0.0 in /  0 mm 846 W/m2
15:47 13.9 °F /  -10.1 °C 11.8 °F /  -11.2 °C 1016.8 in /  34428.8 hPa NNW 20.9 mph /  33.6 km/h 40.2 mph /  64.7 km/h 87 % 0.0 in /  0 mm 838 W/m2
16:02 13.9 °F /  -10.1 °C 11.8 °F /  -11.2 °C 1016.8 in /  34428.8 hPa NW 19.3 mph /  31.1 km/h 30.6 mph /  49.2 km/h 87 % 0.0 in /  0 mm 821 W/m2
16:37 13.8 °F /  -10.1 °C 11.8 °F /  -11.2 °C 1016.8 in /  34428.8 hPa NNW 17.7 mph /  28.5 km/h 40.2 mph /  64.7 km/h 88 % 0.0 in /  0 mm 768 W/m2
16:47 13.8 °F /  -10.1 °C 11.8 °F /  -11.2 °C 1016.8 in /  34428.8 hPa NW 16.1 mph /  25.9 km/h 32.2 mph /  51.8 km/h 88 % 0.0 in /  0 mm 752 W/m2
17:17 13.7 °F /  -10.2 °C 11.9 °F /  -11.2 °C 1016.5 in /  34418.7 hPa NW 17.7 mph /  28.5 km/h 41.8 mph /  67.3 km/h 89 % 0.0 in /  0 mm 693 W/m2
17:42 13.7 °F /  -10.2 °C 11.9 °F /  -11.2 °C 1016.5 in /  34418.7 hPa NW 17.7 mph /  28.5 km/h 37.0 mph /  59.5 km/h 89 % 0.0 in /  0 mm 640 W/m2
18:17 13.7 °F /  -10.2 °C 11.9 °F /  -11.2 °C 1016.5 in /  34418.7 hPa NW 22.5 mph /  36.2 km/h 37.0 mph /  59.5 km/h 89 % 0.0 in /  0 mm 555 W/m2
18:22 13.8 °F /  -10.1 °C 12.0 °F /  -11.1 °C 1016.5 in /  34418.7 hPa NW 20.9 mph /  33.6 km/h 38.6 mph /  62.1 km/h 89 % 0.0 in /  0 mm 543 W/m2
18:27 13.7 °F /  -10.2 °C 11.9 °F /  -11.2 °C 1016.5 in /  34418.7 hPa NW 19.3 mph /  31.1 km/h 35.4 mph /  57 km/h 89 % 0.0 in /  0 mm 527 W/m2
18:32 13.8 °F /  -10.1 °C 12.2 °F /  -11 °C 1016.5 in /  34418.7 hPa NW 17.7 mph /  28.5 km/h 30.6 mph /  49.2 km/h 90 % 0.0 in /  0 mm 515 W/m2
18:37 13.7 °F /  -10.2 °C 11.9 °F /  -11.2 °C 1016.5 in /  34418.7 hPa NNW 16.1 mph /  25.9 km/h 29.0 mph /  46.7 km/h 89 % 0.0 in /  0 mm 501 W/m2
19:12 13.6 °F /  -10.2 °C 11.8 °F /  -11.2 °C 1016.5 in /  34418.7 hPa NW 19.3 mph /  31.1 km/h 37.0 mph /  59.5 km/h 89 % 0.0 in /  0 mm 392 W/m2
19:17 13.6 °F /  -10.2 °C 12.0 °F /  -11.1 °C 1016.5 in /  34418.7 hPa NNW 20.9 mph /  33.6 km/h 33.8 mph /  54.4 km/h 90 % 0.0 in /  0 mm 195 W/m2
19:22 13.6 °F /  -10.2 °C 12.0 °F /  -11.1 °C 1016.5 in /  34418.7 hPa NNW 20.9 mph /  33.6 km/h 32.2 mph /  51.8 km/h 90 % 0.0 in /  0 mm 155 W/m2
19:42 13.6 °F /  -10.2 °C 11.8 °F /  -11.2 °C 1016.5 in /  34418.7 hPa NW 17.7 mph /  28.5 km/h 30.6 mph /  49.2 km/h 89 % 0.0 in /  0 mm 239 W/m2
19:47 13.6 °F /  -10.2 °C 11.8 °F /  -11.2 °C 1016.5 in /  34418.7 hPa NW 17.7 mph /  28.5 km/h 33.8 mph /  54.4 km/h 89 % 0.0 in /  0 mm 144 W/m2
19:58 13.5 °F /  -10.3 °C 11.7 °F /  -11.3 °C 1016.5 in /  34418.7 hPa NW 17.7 mph /  28.5 km/h 29.0 mph /  46.7 km/h 89 % 0.0 in /  0 mm 83 W/m2
20:03 13.5 °F /  -10.3 °C 11.9 °F /  -11.2 °C 1016.5 in /  34418.7 hPa NW 17.7 mph /  28.5 km/h 32.2 mph /  51.8 km/h 90 % 0.0 in /  0 mm 181 W/m2
20:08 13.6 °F /  -10.2 °C 12.0 °F /  -11.1 °C 1016.5 in /  34418.7 hPa NW 16.1 mph /  25.9 km/h 32.2 mph /  51.8 km/h 90 % 0.0 in /  0 mm 125 W/m2
20:13 13.5 °F /  -10.3 °C 11.9 °F /  -11.2 °C 1016.5 in /  34418.7 hPa NW 16.1 mph /  25.9 km/h 32.2 mph /  51.8 km/h 90 % 0.0 in /  0 mm 86 W/m2
20:18 13.4 °F /  -10.3 °C 11.8 °F /  -11.2 °C 1016.5 in /  34418.7 hPa NW 16.1 mph /  25.9 km/h 25.7 mph /  41.4 km/h 90 % 0.0 in /  0 mm 93 W/m2
20:23 13.4 °F /  -10.3 °C 11.8 °F /  -11.2 °C 1016.5 in /  34418.7 hPa NW 14.5 mph /  23.3 km/h 24.1 mph /  38.8 km/h 90 % 0.0 in /  0 mm 88 W/m2
20:28 13.4 °F /  -10.3 °C 11.8 °F /  -11.2 °C 1016.5 in /  34418.7 hPa NNW 14.5 mph /  23.3 km/h 24.1 mph /  38.8 km/h 90 % 0.0 in /  0 mm 60 W/m2
20:33 13.4 °F /  -10.3 °C 11.8 °F /  -11.2 °C 1016.5 in /  34418.7 hPa NW 14.5 mph /  23.3 km/h 29.0 mph /  46.7 km/h 90 % 0.0 in /  0 mm 49 W/m2
20:38 13.4 °F /  -10.3 °C 11.8 °F /  -11.2 °C 1016.5 in /  34418.7 hPa NW 14.5 mph /  23.3 km/h 35.4 mph /  57 km/h 90 % 0.0 in /  0 mm 49 W/m2
20:43 13.4 °F /  -10.3 °C 11.8 °F /  -11.2 °C 1016.5 in /  34418.7 hPa NNW 16.1 mph /  25.9 km/h 25.7 mph /  41.4 km/h 90 % 0.0 in /  0 mm 39 W/m2
20:48 13.4 °F /  -10.3 °C 11.8 °F /  -11.2 °C 1016.8 in /  34428.8 hPa NNW 16.1 mph /  25.9 km/h 32.2 mph /  51.8 km/h 90 % 0.0 in /  0 mm 39 W/m2
20:53 13.4 °F /  -10.3 °C 11.8 °F /  -11.2 °C 1016.8 in /  34428.8 hPa NW 16.1 mph /  25.9 km/h 25.7 mph /  41.4 km/h 90 % 0.0 in /  0 mm 62 W/m2
21:08 13.7 °F /  -10.2 °C 12.1 °F /  -11.1 °C 1016.8 in /  34428.8 hPa NW 11.3 mph /  18.2 km/h 22.5 mph /  36.2 km/h 90 % 0.0 in /  0 mm 62 W/m2
21:13 13.8 °F /  -10.1 °C 12.0 °F /  -11.1 °C 1016.5 in /  34418.7 hPa NNW 11.3 mph /  18.2 km/h 27.4 mph /  44.1 km/h 89 % 0.0 in /  0 mm 44 W/m2
21:18 13.8 °F /  -10.1 °C 12.0 °F /  -11.1 °C 1016.5 in /  34418.7 hPa NNW 8.0 mph /  12.9 km/h 22.5 mph /  36.2 km/h 89 % 0.0 in /  0 mm 30 W/m2
21:53 13.3 °F /  -10.4 °C 11.7 °F /  -11.3 °C 1016.8 in /  34428.8 hPa NW 9.7 mph /  15.6 km/h 20.9 mph /  33.6 km/h 90 % 0.0 in /  0 mm 0 W/m2
22:03 13.3 °F /  -10.4 °C -73.3 °F /  -58.5 °C -3386.0 in /  -114650 hPa NNW 14.5 mph /  23.3 km/h 24.1 mph /  38.8 km/h 91 % 0.0 in /  0 mm 0 W/m2
22:13 13.3 °F /  -10.4 °C -73.3 °F /  -58.5 °C -3386.0 in /  -114650 hPa WSW 8.0 mph /  12.9 km/h 22.5 mph /  36.2 km/h 91 % 0.0 in /  0 mm 0 W/m2
22:18 13.3 °F /  -10.4 °C -73.3 °F /  -58.5 °C -3386.0 in /  -114650 hPa NW 11.3 mph /  18.2 km/h 25.7 mph /  41.4 km/h 91 % 0.0 in /  0 mm 0 W/m2
22:23 13.3 °F /  -10.4 °C -73.3 °F /  -58.5 °C -3386.0 in /  -114650 hPa NW 9.7 mph /  15.6 km/h 24.1 mph /  38.8 km/h 91 % 0.0 in /  0 mm 0 W/m2
22:28 13.3 °F /  -10.4 °C -73.3 °F /  -58.5 °C -3386.0 in /  -114650 hPa NNW 9.7 mph /  15.6 km/h 19.3 mph /  31.1 km/h 91 % 0.0 in /  0 mm 0 W/m2
22:34 13.3 °F /  -10.4 °C -73.3 °F /  -58.5 °C -3386.0 in /  -114650 hPa WNW 4.8 mph /  7.7 km/h 25.7 mph /  41.4 km/h 91 % 0.0 in /  0 mm 0 W/m2
22:49 13.2 °F /  -10.4 °C 11.8 °F /  -11.2 °C 1017.5 in /  34452.6 hPa NW 12.9 mph /  20.8 km/h 25.7 mph /  41.4 km/h 91 % 0.0 in /  0 mm 0 W/m2
22:53 13.2 °F /  -10.4 °C 11.8 °F /  -11.2 °C 1017.5 in /  34452.6 hPa WNW 12.9 mph /  20.8 km/h 20.9 mph /  33.6 km/h 91 % 0.0 in /  0 mm 0 W/m2
22:58 13.3 °F /  -10.4 °C 11.9 °F /  -11.2 °C 1017.8 in /  34462.7 hPa NW 12.9 mph /  20.8 km/h 22.5 mph /  36.2 km/h 91 % 0.0 in /  0 mm 0 W/m2
23:04 13.3 °F /  -10.4 °C 11.9 °F /  -11.2 °C 1017.8 in /  34462.7 hPa NNW 11.3 mph /  18.2 km/h 24.1 mph /  38.8 km/h 91 % 0.0 in /  0 mm 0 W/m2
23:29 13.3 °F /  -10.4 °C -73.3 °F /  -58.5 °C -3386.0 in /  -114650 hPa NNW 4.8 mph /  7.7 km/h 24.1 mph /  38.8 km/h 91 % 0.0 in /  0 mm 0 W/m2
23:33 13.3 °F /  -10.4 °C 11.9 °F /  -11.2 °C 1017.8 in /  34462.7 hPa NNW 9.7 mph /  15.6 km/h 16.1 mph /  25.9 km/h 91 % 0.0 in /  0 mm 0 W/m2
23:38 13.4 °F /  -10.3 °C 11.8 °F /  -11.2 °C 1018.2 in /  34476.3 hPa NNW 9.7 mph /  15.6 km/h 12.9 mph /  20.8 km/h 90 % 0.0 in /  0 mm 0 W/m2
23:43 13.3 °F /  -10.4 °C 11.7 °F /  -11.3 °C 1018.2 in /  34476.3 hPa NNE 8.0 mph /  12.9 km/h 12.9 mph /  20.8 km/h 90 % 0.0 in /  0 mm 0 W/m2
23:48 13.3 °F /  -10.4 °C 11.7 °F /  -11.3 °C 1018.2 in /  34476.3 hPa NNE 6.4 mph /  10.3 km/h 19.3 mph /  31.1 km/h 90 % 0.0 in /  0 mm 0 W/m2
23:54 13.3 °F /  -10.4 °C 11.5 °F /  -11.4 °C 1018.2 in /  34476.3 hPa NNE 6.4 mph /  10.3 km/h 14.5 mph /  23.3 km/h 89 % 0.0 in /  0 mm 0 W/m2
Meteocoruña
Agradecimientos a Weather Underground - 3 mb